createdAt,value
2017-12-31T00:00:22.211Z,2.83
2017-12-31T00:02:48.110Z,2.80
2017-12-31T00:05:13.998Z,2.90
2017-12-31T00:07:39.894Z,3.57
2017-12-31T00:10:05.791Z,2.93
2017-12-31T00:12:31.688Z,2.97
2017-12-31T00:14:58.312Z,3.27
2017-12-31T00:17:25.012Z,3.27
2017-12-31T00:19:50.934Z,3.03
2017-12-31T00:22:16.816Z,3.10
2017-12-31T00:24:42.720Z,2.80
2017-12-31T00:27:08.610Z,3.40
2017-12-31T00:29:34.509Z,2.47
2017-12-31T00:32:00.403Z,2.37
2017-12-31T00:34:26.314Z,2.80
2017-12-31T00:36:52.252Z,2.20
2017-12-31T00:39:18.194Z,3.17
2017-12-31T00:41:44.097Z,2.50
2017-12-31T00:44:09.982Z,3.10
2017-12-31T00:46:35.924Z,2.33
2017-12-31T00:49:01.904Z,2.30
2017-12-31T00:51:28.578Z,2.50
2017-12-31T00:53:54.490Z,2.33
2017-12-31T00:56:20.395Z,3.10
2017-12-31T00:58:47.140Z,1.80
2017-12-31T01:01:13.041Z,2.77
2017-12-31T01:03:38.967Z,2.60
2017-12-31T01:06:05.582Z,2.40
2017-12-31T01:08:31.490Z,2.13
2017-12-31T01:10:57.423Z,2.17
2017-12-31T01:13:23.340Z,2.03
2017-12-31T01:15:49.281Z,2.17
2017-12-31T01:18:15.982Z,1.67
2017-12-31T01:20:41.875Z,1.77
2017-12-31T01:23:07.786Z,1.97
2017-12-31T01:25:33.751Z,1.70
2017-12-31T01:27:59.659Z,2.10
2017-12-31T01:30:25.586Z,2.37
2017-12-31T01:32:51.484Z,2.13
2017-12-31T01:35:17.391Z,1.60
2017-12-31T01:37:43.293Z,1.50
2017-12-31T01:40:09.935Z,1.70
2017-12-31T01:42:35.848Z,1.80
2017-12-31T01:45:02.610Z,1.53
2017-12-31T01:47:28.505Z,2.00
2017-12-31T01:49:54.438Z,2.00
2017-12-31T01:52:20.371Z,1.47
2017-12-31T01:54:46.267Z,1.70
2017-12-31T01:57:12.934Z,1.60
2017-12-31T01:59:38.916Z,2.00
2017-12-31T02:02:05.586Z,1.57
2017-12-31T02:04:31.492Z,1.90
2017-12-31T02:06:58.131Z,1.37
2017-12-31T02:09:24.098Z,1.80
2017-12-31T02:11:50.036Z,1.90
2017-12-31T02:14:15.949Z,2.80
2017-12-31T02:16:41.879Z,2.00
2017-12-31T02:19:07.810Z,2.20
2017-12-31T02:21:33.784Z,2.23
2017-12-31T02:23:59.734Z,2.10
2017-12-31T02:26:25.627Z,2.90
2017-12-31T02:28:52.437Z,2.63
2017-12-31T02:31:18.328Z,3.10
2017-12-31T02:33:44.246Z,3.10
2017-12-31T02:36:10.237Z,2.87
2017-12-31T02:38:36.182Z,3.57
2017-12-31T02:41:02.126Z,3.03
2017-12-31T02:43:28.022Z,4.00
2017-12-31T02:45:53.930Z,3.90
2017-12-31T02:48:19.828Z,4.20
2017-12-31T02:50:45.784Z,4.20
2017-12-31T02:53:11.689Z,4.93
2017-12-31T02:55:37.612Z,5.10
2017-12-31T02:58:04.426Z,5.20
2017-12-31T03:00:30.324Z,6.80
2017-12-31T03:02:56.226Z,5.50
2017-12-31T03:05:22.850Z,6.20
2017-12-31T03:07:48.774Z,5.40
2017-12-31T03:10:14.693Z,5.80
2017-12-31T03:12:40.626Z,5.60
2017-12-31T03:15:06.530Z,5.67
2017-12-31T03:17:32.448Z,6.43
2017-12-31T03:19:58.346Z,6.20
2017-12-31T03:22:24.266Z,6.00
2017-12-31T03:24:50.186Z,5.30
2017-12-31T03:27:16.088Z,5.30
2017-12-31T03:29:41.994Z,5.30
2017-12-31T03:32:07.916Z,5.73
2017-12-31T03:34:34.006Z,5.50
2017-12-31T03:36:59.979Z,4.77
2017-12-31T03:39:25.886Z,5.37
2017-12-31T03:41:51.810Z,5.27
2017-12-31T03:44:18.458Z,4.10
2017-12-31T03:46:44.355Z,4.27
2017-12-31T03:49:10.314Z,3.70
2017-12-31T03:51:36.211Z,4.30
2017-12-31T03:54:02.147Z,3.70
2017-12-31T03:56:28.044Z,3.33
2017-12-31T03:58:53.936Z,2.80
2017-12-31T04:01:20.590Z,3.30
2017-12-31T04:03:46.479Z,3.53
2017-12-31T04:06:12.372Z,3.80
2017-12-31T04:08:38.360Z,2.90
2017-12-31T04:11:04.271Z,2.70
2017-12-31T04:13:30.187Z,2.90
2017-12-31T04:15:56.089Z,2.63
2017-12-31T04:18:21.988Z,3.07
2017-12-31T04:20:47.862Z,2.53
2017-12-31T04:23:13.771Z,2.50
2017-12-31T04:25:39.693Z,3.10
2017-12-31T04:28:05.574Z,2.30
2017-12-31T04:30:32.318Z,2.80
2017-12-31T04:32:58.986Z,2.93
2017-12-31T04:35:24.883Z,3.10
2017-12-31T04:37:51.595Z,3.03
2017-12-31T04:40:17.558Z,2.80
2017-12-31T04:42:43.449Z,3.67
2017-12-31T04:45:09.390Z,2.60
2017-12-31T04:47:35.295Z,2.80
2017-12-31T04:50:01.923Z,3.90
2017-12-31T04:52:27.833Z,4.37
2017-12-31T04:54:53.773Z,4.00
2017-12-31T04:57:20.429Z,4.60
2017-12-31T04:59:46.331Z,4.20
2017-12-31T05:02:12.253Z,4.50
2017-12-31T05:04:38.176Z,5.33
2017-12-31T05:07:04.812Z,4.60
2017-12-31T05:09:31.464Z,4.37
2017-12-31T05:11:57.380Z,4.27
2017-12-31T05:14:24.017Z,4.20
2017-12-31T05:16:49.914Z,3.90
2017-12-31T05:19:15.938Z,3.93
2017-12-31T05:21:41.837Z,3.60
2017-12-31T05:24:07.723Z,4.07
2017-12-31T05:26:33.622Z,4.57
2017-12-31T05:29:00.318Z,5.30
2017-12-31T05:31:26.206Z,4.70
2017-12-31T05:33:52.106Z,4.90
2017-12-31T05:36:17.992Z,8.67
2017-12-31T05:38:43.922Z,4.80
2017-12-31T05:41:10.734Z,4.20
2017-12-31T05:43:36.631Z,4.53
2017-12-31T05:46:02.554Z,4.00
2017-12-31T05:48:28.452Z,4.27
2017-12-31T05:50:54.418Z,4.47
2017-12-31T05:53:20.338Z,4.03
2017-12-31T05:55:46.254Z,4.30
2017-12-31T05:58:12.197Z,4.00
2017-12-31T06:00:38.115Z,4.33
2017-12-31T06:03:04.762Z,3.80
2017-12-31T06:05:30.651Z,3.70
2017-12-31T06:07:56.577Z,4.53
2017-12-31T06:10:22.510Z,4.13
2017-12-31T06:12:48.441Z,4.00
2017-12-31T06:15:15.080Z,4.27
2017-12-31T06:17:41.000Z,4.13
2017-12-31T06:20:06.909Z,4.07
2017-12-31T06:22:32.818Z,4.30
2017-12-31T06:24:58.721Z,3.53
2017-12-31T06:27:24.625Z,3.67
2017-12-31T06:29:50.521Z,3.80
2017-12-31T06:32:16.428Z,3.80
2017-12-31T06:34:43.075Z,4.40
2017-12-31T06:37:08.995Z,3.23
2017-12-31T06:39:34.926Z,3.50
2017-12-31T06:42:00.845Z,4.30
2017-12-31T06:44:26.754Z,5.50
2017-12-31T06:46:52.672Z,3.83
2017-12-31T06:49:19.420Z,3.50
2017-12-31T06:51:45.350Z,4.40
2017-12-31T06:54:11.259Z,5.30
2017-12-31T06:56:37.882Z,5.30
2017-12-31T06:59:03.782Z,3.87
2017-12-31T07:01:29.657Z,3.37
2017-12-31T07:03:55.554Z,4.77
2017-12-31T07:06:22.264Z,4.30
2017-12-31T07:08:48.166Z,3.57
2017-12-31T07:11:14.090Z,3.87
2017-12-31T07:13:39.975Z,3.80
2017-12-31T07:16:05.983Z,3.53
2017-12-31T07:18:31.926Z,3.83
2017-12-31T07:20:58.587Z,3.30
2017-12-31T07:23:24.505Z,3.53
2017-12-31T07:25:50.987Z,3.17
2017-12-31T07:28:16.918Z,4.30
2017-12-31T07:30:42.806Z,4.07
2017-12-31T07:33:09.446Z,4.20
2017-12-31T07:35:35.333Z,3.70
2017-12-31T07:38:01.234Z,4.03
2017-12-31T07:40:27.869Z,3.40
2017-12-31T07:42:53.835Z,4.13
2017-12-31T07:45:19.710Z,4.20
2017-12-31T07:47:45.602Z,3.50
2017-12-31T07:50:11.490Z,3.90
2017-12-31T07:52:37.402Z,5.30
2017-12-31T07:55:03.306Z,3.20
2017-12-31T07:57:29.246Z,3.00
2017-12-31T07:59:55.194Z,3.43
2017-12-31T08:02:21.179Z,3.50
2017-12-31T08:04:47.098Z,3.93
2017-12-31T08:07:13.003Z,3.93
2017-12-31T08:09:38.902Z,3.60
2017-12-31T08:12:04.800Z,3.83
2017-12-31T08:14:30.721Z,3.90
2017-12-31T08:16:56.641Z,3.50
2017-12-31T08:19:22.535Z,4.20
2017-12-31T08:21:48.413Z,3.23
2017-12-31T08:24:14.372Z,3.77
2017-12-31T08:26:41.018Z,4.00
2017-12-31T08:29:06.914Z,4.50
2017-12-31T08:31:32.804Z,3.50
2017-12-31T08:33:58.701Z,3.37
2017-12-31T08:36:24.628Z,3.57
2017-12-31T08:38:50.585Z,4.20
2017-12-31T08:41:16.533Z,3.97
2017-12-31T08:43:42.426Z,4.20
2017-12-31T08:46:08.328Z,4.60
2017-12-31T08:48:34.285Z,4.10
2017-12-31T08:51:00.962Z,3.70
2017-12-31T08:53:26.934Z,3.57
2017-12-31T08:55:52.827Z,3.50
2017-12-31T08:58:18.716Z,4.10
2017-12-31T09:00:44.602Z,3.67
2017-12-31T09:03:10.538Z,4.70
2017-12-31T09:05:37.178Z,3.43
2017-12-31T09:08:03.844Z,3.30
2017-12-31T09:10:29.818Z,3.10
2017-12-31T09:12:55.771Z,4.27
2017-12-31T09:15:21.715Z,3.80
2017-12-31T09:17:48.378Z,3.70
2017-12-31T09:20:14.282Z,3.47
2017-12-31T09:22:40.173Z,2.83
2017-12-31T09:25:06.075Z,3.30
2017-12-31T09:27:32.057Z,2.77
2017-12-31T09:29:57.958Z,3.23
2017-12-31T09:32:23.861Z,2.90
2017-12-31T09:34:49.782Z,2.80
2017-12-31T09:37:15.690Z,3.30
2017-12-31T09:39:42.321Z,3.17
2017-12-31T09:42:09.002Z,3.33
2017-12-31T09:44:34.898Z,4.10
2017-12-31T09:47:00.845Z,3.27
2017-12-31T09:49:26.764Z,3.57
2017-12-31T09:51:52.690Z,3.13
2017-12-31T09:54:18.578Z,3.10
2017-12-31T09:56:44.506Z,8.40
2017-12-31T09:59:10.441Z,4.80
2017-12-31T10:01:36.383Z,3.00
2017-12-31T10:04:02.313Z,2.90
2017-12-31T10:06:28.236Z,2.97
2017-12-31T10:08:54.169Z,3.70
2017-12-31T10:11:20.104Z,3.50
2017-12-31T10:13:46.080Z,3.70
2017-12-31T10:16:12.028Z,3.93
2017-12-31T10:18:37.966Z,4.03
2017-12-31T10:21:04.670Z,4.03
2017-12-31T10:23:30.647Z,3.53
2017-12-31T10:25:57.103Z,3.67
2017-12-31T10:28:23.057Z,2.87
2017-12-31T10:30:49.079Z,3.33
2017-12-31T10:33:15.006Z,3.60
2017-12-31T10:35:40.931Z,3.60
2017-12-31T10:38:06.859Z,3.70
2017-12-31T10:40:33.498Z,3.43
2017-12-31T10:43:00.172Z,3.57
2017-12-31T10:45:26.114Z,3.30
2017-12-31T10:47:52.077Z,3.43
2017-12-31T10:50:18.055Z,3.50
2017-12-31T10:52:43.988Z,3.40
2017-12-31T10:55:09.907Z,3.77
2017-12-31T10:57:35.830Z,4.70
2017-12-31T11:00:01.746Z,3.07
2017-12-31T11:02:27.699Z,3.27
2017-12-31T11:04:53.708Z,4.70
2017-12-31T11:07:19.635Z,3.87
2017-12-31T11:09:45.580Z,3.20
2017-12-31T11:12:11.663Z,3.43
2017-12-31T11:14:37.590Z,3.13
2017-12-31T11:17:03.502Z,3.83
2017-12-31T11:19:29.442Z,3.40
2017-12-31T11:21:56.286Z,3.40
2017-12-31T11:24:23.034Z,3.70
2017-12-31T11:26:48.963Z,2.73
2017-12-31T11:29:14.887Z,3.10
2017-12-31T11:31:40.833Z,2.90
2017-12-31T11:34:06.886Z,2.80
2017-12-31T11:36:32.860Z,2.90
2017-12-31T11:38:58.845Z,3.40
2017-12-31T11:41:24.795Z,3.03
2017-12-31T11:43:50.738Z,3.50
2017-12-31T11:46:16.765Z,3.20
2017-12-31T11:48:42.742Z,3.27
2017-12-31T11:51:08.678Z,3.50
2017-12-31T11:53:35.635Z,3.20
2017-12-31T11:56:01.658Z,3.30
2017-12-31T11:58:27.592Z,2.90
2017-12-31T12:00:53.522Z,2.67
2017-12-31T12:03:20.508Z,4.40
2017-12-31T12:05:46.530Z,3.30
2017-12-31T12:08:12.546Z,3.40
2017-12-31T12:10:38.558Z,3.50
2017-12-31T12:13:04.574Z,3.57
2017-12-31T12:15:30.515Z,7.40
2017-12-31T12:17:56.406Z,2.60
2017-12-31T12:20:22.302Z,3.50
2017-12-31T12:22:48.211Z,3.37
2017-12-31T12:25:14.148Z,2.90
2017-12-31T12:27:40.018Z,3.03
2017-12-31T12:30:05.926Z,3.13
2017-12-31T12:32:31.838Z,3.03
2017-12-31T12:34:57.785Z,3.10
2017-12-31T12:37:24.465Z,3.67
2017-12-31T12:39:50.427Z,3.63
2017-12-31T12:42:16.364Z,3.40
2017-12-31T12:44:43.154Z,2.97
2017-12-31T12:47:09.063Z,3.43
2017-12-31T12:49:34.986Z,2.80
2017-12-31T12:52:00.957Z,3.30
2017-12-31T12:54:26.866Z,3.10
2017-12-31T12:56:52.798Z,3.53
2017-12-31T12:59:18.739Z,3.17
2017-12-31T13:01:45.365Z,3.30
2017-12-31T13:04:11.308Z,3.37
2017-12-31T13:06:37.254Z,3.00
2017-12-31T13:09:03.890Z,3.23
2017-12-31T13:11:29.866Z,3.20
2017-12-31T13:13:56.535Z,3.10
2017-12-31T13:16:22.474Z,2.90
2017-12-31T13:18:48.465Z,3.00
2017-12-31T13:21:14.353Z,2.90
2017-12-31T13:23:40.270Z,3.00
2017-12-31T13:26:06.194Z,3.10
2017-12-31T13:28:32.124Z,3.67
2017-12-31T13:30:58.783Z,3.33
2017-12-31T13:33:24.735Z,3.00
2017-12-31T13:35:50.646Z,3.10
2017-12-31T13:38:16.558Z,4.30
2017-12-31T13:40:42.570Z,4.77
2017-12-31T13:43:08.549Z,2.70
2017-12-31T13:45:34.470Z,3.27
2017-12-31T13:48:00.382Z,3.10
2017-12-31T13:50:26.359Z,3.23
2017-12-31T13:52:52.307Z,2.90
2017-12-31T13:55:18.205Z,3.50
2017-12-31T13:57:45.064Z,2.70
2017-12-31T14:00:11.066Z,2.90
2017-12-31T14:02:36.978Z,2.77
2017-12-31T14:05:02.971Z,4.20
2017-12-31T14:07:28.891Z,2.97
2017-12-31T14:09:54.808Z,2.90
2017-12-31T14:12:20.738Z,3.17
2017-12-31T14:14:46.736Z,2.90
2017-12-31T14:17:12.738Z,3.47
2017-12-31T14:19:39.386Z,3.57
2017-12-31T14:22:05.363Z,2.67
2017-12-31T14:24:31.298Z,2.93
2017-12-31T14:26:58.023Z,3.67
2017-12-31T14:29:23.934Z,3.00
2017-12-31T14:31:49.832Z,3.13
2017-12-31T14:34:15.775Z,2.90
2017-12-31T14:36:41.765Z,2.97
2017-12-31T14:39:07.698Z,2.70
2017-12-31T14:41:33.622Z,3.60
2017-12-31T14:43:59.564Z,2.83
2017-12-31T14:46:25.731Z,2.90
2017-12-31T14:48:52.490Z,2.80
2017-12-31T14:51:18.398Z,3.20
2017-12-31T14:53:44.326Z,2.60
2017-12-31T14:56:10.904Z,2.90
2017-12-31T14:58:37.558Z,2.70
2017-12-31T15:01:03.505Z,2.73
2017-12-31T15:03:29.447Z,6.60
2017-12-31T15:05:55.384Z,2.40
2017-12-31T15:08:22.078Z,3.20
2017-12-31T15:10:48.018Z,3.20
2017-12-31T15:13:13.928Z,2.73
2017-12-31T15:15:39.915Z,3.07
2017-12-31T15:18:05.842Z,2.70
2017-12-31T15:20:32.679Z,2.87
2017-12-31T15:22:58.634Z,3.00
2017-12-31T15:25:24.578Z,2.50
2017-12-31T15:27:50.710Z,2.80
2017-12-31T15:30:16.615Z,3.03
2017-12-31T15:32:42.535Z,2.60
2017-12-31T15:35:08.466Z,2.77
2017-12-31T15:37:34.379Z,2.80
2017-12-31T15:40:00.290Z,2.10
2017-12-31T15:42:26.184Z,2.33
2017-12-31T15:44:52.079Z,2.90
2017-12-31T15:47:18.003Z,2.77
2017-12-31T15:49:45.003Z,2.70
2017-12-31T15:52:11.291Z,3.90
2017-12-31T15:54:37.603Z,299.23
2017-12-31T15:57:03.525Z,138.43
2017-12-31T15:59:31.405Z,4.90
2017-12-31T16:01:57.352Z,3.27
2017-12-31T16:04:23.274Z,3.47
2017-12-31T16:06:49.203Z,4.63
2017-12-31T16:09:15.109Z,3.40
2017-12-31T16:11:41.093Z,3.27
2017-12-31T16:14:07.034Z,2.47
2017-12-31T16:16:33.067Z,5.87
2017-12-31T16:18:59.038Z,7.00
2017-12-31T16:21:24.954Z,4.60
2017-12-31T16:23:50.850Z,6.23
2017-12-31T16:26:16.787Z,3.73
2017-12-31T16:28:42.738Z,4.87
2017-12-31T16:31:08.654Z,3.37
2017-12-31T16:33:34.943Z,3.23
2017-12-31T16:36:00.889Z,3.60
2017-12-31T16:38:26.906Z,19.60
2017-12-31T16:40:52.876Z,5.47
2017-12-31T16:43:18.838Z,4.17
2017-12-31T16:45:44.759Z,14.83
2017-12-31T16:48:10.683Z,3.70
2017-12-31T16:50:36.609Z,8.40
2017-12-31T16:53:02.581Z,4.53
2017-12-31T16:55:28.554Z,8.50
2017-12-31T16:57:55.426Z,4.30
2017-12-31T17:00:21.497Z,3.57
2017-12-31T17:02:47.586Z,4.07
2017-12-31T17:05:13.622Z,3.70
2017-12-31T17:07:40.569Z,4.90
2017-12-31T17:10:06.542Z,9.00
2017-12-31T17:12:32.502Z,5.67
2017-12-31T17:14:59.230Z,6.17
2017-12-31T17:17:25.814Z,4.07
2017-12-31T17:19:51.735Z,6.00
2017-12-31T17:22:17.697Z,4.40
2017-12-31T17:24:43.634Z,5.27
2017-12-31T17:27:09.537Z,5.77
2017-12-31T17:29:36.194Z,4.50
2017-12-31T17:32:03.192Z,3.70
2017-12-31T17:34:29.242Z,4.23
2017-12-31T17:36:55.259Z,4.27
2017-12-31T17:39:21.242Z,5.20
2017-12-31T17:41:47.222Z,6.77
2017-12-31T17:44:13.137Z,37.63
2017-12-31T17:46:39.051Z,126.77
2017-12-31T17:49:04.967Z,47.00
2017-12-31T17:51:30.979Z,26.57
2017-12-31T17:53:56.909Z,7.00
2017-12-31T17:56:22.831Z,9.07
2017-12-31T17:58:48.758Z,4.53
2017-12-31T18:01:14.681Z,5.13
2017-12-31T18:03:40.714Z,6.40
2017-12-31T18:06:07.412Z,3.80
2017-12-31T18:08:34.119Z,3.73
2017-12-31T18:11:00.080Z,10.90
2017-12-31T18:13:26.752Z,6.90
2017-12-31T18:15:52.806Z,7.20
2017-12-31T18:18:26.189Z,7.07
2017-12-31T18:26:44.856Z,10.10
2017-12-31T18:49:07.342Z,10.33
2017-12-31T18:54:07.853Z,8.87
2017-12-31T18:56:33.991Z,4.53
2017-12-31T19:18:48.473Z,8.30
2017-12-31T19:21:22.585Z,9.80
2017-12-31T19:26:35.714Z,11.80
2017-12-31T19:29:03.388Z,8.97
2017-12-31T19:31:34.002Z,13.13
2017-12-31T19:34:00.932Z,7.90
2017-12-31T19:42:12.029Z,8.53
2017-12-31T19:47:21.829Z,15.70
2017-12-31T19:55:02.941Z,7.80
2017-12-31T19:57:33.832Z,8.37
2017-12-31T20:00:13.190Z,9.00
2017-12-31T20:05:54.142Z,9.00
2017-12-31T20:08:20.139Z,60.13
2017-12-31T20:10:46.272Z,10.13
2017-12-31T20:13:12.231Z,6.93
2017-12-31T20:15:38.927Z,8.97
2017-12-31T20:18:06.419Z,12.07
2017-12-31T20:20:35.288Z,8.07
2017-12-31T20:23:01.225Z,8.10
2017-12-31T20:25:29.359Z,6.20
2017-12-31T20:27:56.126Z,11.57
2017-12-31T20:30:22.069Z,8.00
2017-12-31T20:32:48.026Z,9.90
2017-12-31T20:35:13.934Z,6.40
2017-12-31T20:37:40.100Z,4.80
2017-12-31T20:40:06.032Z,7.73
2017-12-31T20:42:31.954Z,5.40
2017-12-31T20:44:57.892Z,7.60
2017-12-31T20:47:23.952Z,6.47
2017-12-31T20:49:49.856Z,9.80
2017-12-31T20:52:15.847Z,6.13
2017-12-31T20:54:41.807Z,8.80
2017-12-31T20:57:09.026Z,7.93
2017-12-31T20:59:35.900Z,7.00
2017-12-31T21:02:02.845Z,9.40
2017-12-31T21:04:28.775Z,6.20
2017-12-31T21:06:54.852Z,6.17
2017-12-31T21:09:20.978Z,5.53
2017-12-31T21:11:47.872Z,7.10
2017-12-31T21:14:16.004Z,4.33
2017-12-31T21:16:42.712Z,8.13
2017-12-31T21:19:08.730Z,7.73
2017-12-31T21:21:35.390Z,7.00
2017-12-31T21:24:02.414Z,8.33
2017-12-31T21:26:32.079Z,8.73
2017-12-31T21:28:58.150Z,7.27
2017-12-31T21:31:24.142Z,7.57
2017-12-31T21:33:51.070Z,25.77
2017-12-31T21:36:16.984Z,14.13
2017-12-31T21:38:53.291Z,13.03
2017-12-31T21:41:26.833Z,10.60
2017-12-31T21:43:54.514Z,11.97
2017-12-31T21:46:23.934Z,13.90
2017-12-31T21:49:10.108Z,12.20
2017-12-31T21:51:40.086Z,12.43
2017-12-31T21:54:07.144Z,13.63
2017-12-31T21:59:40.599Z,11.20
2017-12-31T22:07:36.248Z,11.83
2017-12-31T22:10:04.907Z,9.47
2017-12-31T22:12:32.682Z,13.23
2017-12-31T22:14:59.644Z,14.13
2017-12-31T22:17:25.703Z,10.90
2017-12-31T22:41:26.336Z,7.60
2017-12-31T22:46:50.708Z,11.83
2017-12-31T22:49:20.632Z,16.87
2017-12-31T22:51:50.116Z,18.67
2017-12-31T22:56:50.877Z,20.10
2017-12-31T22:59:16.896Z,22.10
2017-12-31T23:01:43.630Z,50.43
2017-12-31T23:04:10.505Z,140.53
2017-12-31T23:06:38.910Z,91.10
2017-12-31T23:09:05.333Z,113.67
2017-12-31T23:11:31.346Z,130.20
2017-12-31T23:13:57.326Z,214.57
2017-12-31T23:16:24.217Z,405.80
2017-12-31T23:18:50.133Z,125.00
2017-12-31T23:21:16.062Z,393.20
2017-12-31T23:23:41.983Z,158.77
2017-12-31T23:26:07.960Z,69.30
2017-12-31T23:28:34.617Z,45.00
2017-12-31T23:31:00.567Z,49.47
2017-12-31T23:33:27.205Z,45.10
2017-12-31T23:35:53.128Z,36.60
2017-12-31T23:38:19.011Z,29.40
2017-12-31T23:40:44.974Z,31.47
2017-12-31T23:43:11.290Z,19.80
2017-12-31T23:45:37.264Z,18.27
2017-12-31T23:48:03.894Z,20.83
2017-12-31T23:50:32.054Z,37.73
2017-12-31T23:55:35.800Z,17.07
